OISY  Yasouj Airport

Add Bookmark

Iran

Status
Operational
Latitude Longitude
30° 42' 1" N 51° 32' 42" E
30.700500 51.545101
Local (DST + 5) UTC (GMT + 4)
Nov 22, 2014 03:27 Nov 21, 2014 23:57
Sunrise-Sunset Local UTC
Begin Civil Twilight 06:09 02:39
Sunrise 06:34 03:04
Sunset 05:05 13:35
End Civil Twilight 05:30 14:00

Current Weather

METAR Observed VFR
OISY 212300Z 11004KT CAVOK 07/00 Q1024 Fri, Nov 21, 2014 @ 23:00 UTC
(57 Minutes ago)
Visual Flight Rules
Wind Visibility Clouds Conditions
110° at 4 knots (7 kph) 10 km or more
  • Clear skies
  • No significant weather
Temperatures Readings Precipitation
Current Temp 7°C (45°F)
Dewpoint 0°C (32°F)
Humidity 61%
Altimeter 30.24"Hg
Sea Level Pressure 1024mb
Field Elevation 5941.6'
None Recorded

24 Hour Weather History

Loading
-

24 Hour Weather Graphs

Loading
-

CheckWX.com is intended as a tool to help pilots better visualize weather data. It is not intended as a substitute for an official weather briefing obtained from a Flight Service Station. CheckWX.com does not meet the FAA requirements for an official pre-flight weather briefing. Therefore, it's important that pilots still call and obtain an official FSS pre-flight weather briefing.